Terminal Aerodrome Forecast
Issued by NWS

Home | Current Version | Previous Version | Text Only | Print | Product List | Glossary On
Versions: 1 2 3 4 5 6 7 8 9 10 11 12 13 14 15 16 17 18 19 20 21 22 23 24 25 26 27 28
000
FTUS42 KRAH 271253 AAA
TAFINT
TAF AMD
KINT 271253Z 2713/2812 16004KT P6SM SCT006 BKN120
      TEMPO 2713/2714 BKN006
     FM272000 23010G16KT P6SM BKN035
     FM280000 19003KT P6SM OVC250
     FM280600 19003KT 4SM -SHRA BR OVC007=

USA.gov is the U.S. government's official web portal to all federal, state and local government web resources and services.